createdAt,value
2018-06-30T00:01:57.258Z,3.40
2018-06-30T00:04:29.733Z,3.40
2018-06-30T00:06:59.254Z,3.30
2018-06-30T00:09:28.706Z,3.50
2018-06-30T00:11:58.175Z,3.53
2018-06-30T00:14:27.616Z,3.20
2018-06-30T00:16:58.001Z,3.42
2018-06-30T00:19:30.494Z,3.07
2018-06-30T00:21:59.996Z,3.85
2018-06-30T00:24:32.404Z,3.57
2018-06-30T00:27:27.063Z,3.43
2018-06-30T00:29:59.454Z,2.93
2018-06-30T00:32:31.852Z,2.93
2018-06-30T00:35:04.093Z,3.03
2018-06-30T00:37:33.600Z,2.80
2018-06-30T00:40:02.314Z,2.97
2018-06-30T00:42:34.714Z,2.93
2018-06-30T00:45:04.297Z,3.33
2018-06-30T00:47:36.692Z,3.10
2018-06-30T00:50:06.177Z,3.33
2018-06-30T00:52:35.605Z,3.37
2018-06-30T00:55:05.050Z,3.67
2018-06-30T00:57:37.493Z,3.37
2018-06-30T01:00:06.989Z,3.33
2018-06-30T01:02:37.226Z,3.40
2018-06-30T01:05:09.021Z,3.07
2018-06-30T01:07:38.503Z,3.23
2018-06-30T01:11:56.029Z,3.90
2018-06-30T01:14:25.518Z,4.00
2018-06-30T01:16:57.871Z,3.90
2018-06-30T01:19:30.281Z,3.50
2018-06-30T01:22:00.658Z,3.40
2018-06-30T01:24:33.156Z,3.37
2018-06-30T01:27:06.169Z,4.00
2018-06-30T01:29:37.223Z,3.60
2018-06-30T01:32:10.175Z,3.17
2018-06-30T01:34:40.422Z,3.60
2018-06-30T01:37:10.651Z,3.47
2018-06-30T01:39:43.070Z,3.17
2018-06-30T01:42:14.076Z,3.35
2018-06-30T01:44:46.495Z,2.83
2018-06-30T01:47:16.708Z,3.20
2018-06-30T01:49:49.144Z,3.27
2018-06-30T01:52:20.959Z,3.50
2018-06-30T01:54:50.449Z,3.80
2018-06-30T01:57:21.455Z,4.13
2018-06-30T01:59:50.941Z,3.97
2018-06-30T02:02:23.316Z,3.37
2018-06-30T02:04:55.736Z,3.63
2018-06-30T02:07:25.176Z,3.80
2018-06-30T02:09:57.688Z,4.40
2018-06-30T02:12:30.099Z,3.50
2018-06-30T02:15:01.125Z,4.10
2018-06-30T02:17:33.605Z,3.80
2018-06-30T02:20:03.844Z,3.60
2018-06-30T02:22:36.260Z,4.03
2018-06-30T02:25:05.756Z,3.90
2018-06-30T02:27:36.031Z,4.00
2018-06-30T02:30:06.273Z,4.07
2018-06-30T02:32:36.521Z,4.17
2018-06-30T02:35:08.959Z,4.37
2018-06-30T02:37:38.423Z,4.20
2018-06-30T02:40:10.857Z,3.83
2018-06-30T02:42:41.250Z,4.60
2018-06-30T02:45:12.272Z,4.87
2018-06-30T02:47:44.695Z,4.20
2018-06-30T02:50:16.492Z,4.20
2018-06-30T02:52:47.468Z,4.80
2018-06-30T02:55:20.001Z,4.37
2018-06-30T02:57:52.379Z,4.57
2018-06-30T03:00:24.176Z,4.57
2018-06-30T03:02:56.664Z,4.05
2018-06-30T03:05:26.095Z,3.23
2018-06-30T03:07:58.497Z,3.33
2018-06-30T03:10:27.948Z,3.30
2018-06-30T03:13:00.375Z,3.30
2018-06-30T03:15:32.762Z,3.33
2018-06-30T03:18:03.268Z,3.70
2018-06-30T03:20:35.655Z,4.07
2018-06-30T03:23:07.452Z,4.43
2018-06-30T03:25:38.457Z,4.00
2018-06-30T03:28:10.245Z,3.70
2018-06-30T03:30:39.701Z,3.50
2018-06-30T03:33:09.144Z,3.80
2018-06-30T03:35:38.602Z,3.67
2018-06-30T03:38:08.841Z,3.53
2018-06-30T03:40:38.308Z,3.67
2018-06-30T03:43:07.787Z,4.30
2018-06-30T03:45:38.004Z,3.40
2018-06-30T03:48:21.780Z,3.67
2018-06-30T03:50:52.780Z,4.23
2018-06-30T03:53:25.188Z,4.27
2018-06-30T03:55:57.643Z,4.00
2018-06-30T03:58:30.364Z,4.27
2018-06-30T04:01:02.754Z,3.90
2018-06-30T04:03:32.197Z,3.97
2018-06-30T04:06:04.688Z,4.13
2018-06-30T04:08:36.524Z,4.47
2018-06-30T04:11:08.397Z,4.77
2018-06-30T04:13:38.640Z,4.40
2018-06-30T04:16:08.152Z,4.33
2018-06-30T04:18:39.967Z,4.00
2018-06-30T04:21:09.900Z,3.97
2018-06-30T04:23:39.374Z,3.73
2018-06-30T04:26:08.809Z,4.07
2018-06-30T04:28:39.891Z,4.62
2018-06-30T04:31:09.346Z,4.03
2018-06-30T04:33:39.597Z,4.07
2018-06-30T04:36:09.048Z,4.27
2018-06-30T04:38:41.460Z,3.00
2018-06-30T04:41:13.924Z,4.10
2018-06-30T04:43:43.400Z,3.33
2018-06-30T04:46:13.624Z,3.73
2018-06-30T04:48:44.643Z,4.43
2018-06-30T04:51:17.148Z,4.60
2018-06-30T04:53:48.964Z,4.87
2018-06-30T04:56:18.404Z,4.77
2018-06-30T04:58:47.888Z,4.60
2018-06-30T05:01:18.140Z,5.45
2018-06-30T05:03:50.516Z,4.37
2018-06-30T05:06:20.004Z,4.20
2018-06-30T05:08:51.792Z,4.37
2018-06-30T05:11:24.284Z,4.03
2018-06-30T05:13:56.058Z,3.80
2018-06-30T05:16:27.085Z,3.80
2018-06-30T05:18:59.464Z,3.50
2018-06-30T05:21:28.907Z,4.90
2018-06-30T05:23:58.362Z,4.00
2018-06-30T05:26:28.581Z,4.73
2018-06-30T05:29:01.007Z,5.32
2018-06-30T05:31:30.455Z,5.30
2018-06-30T05:34:03.148Z,4.43
2018-06-30T05:36:32.579Z,5.00
2018-06-30T05:39:04.998Z,5.07
2018-06-30T05:41:34.433Z,5.23
2018-06-30T05:44:05.453Z,5.37
2018-06-30T05:46:37.857Z,5.47
2018-06-30T05:49:08.197Z,5.57
2018-06-30T05:51:39.047Z,4.97
2018-06-30T05:54:08.512Z,5.70
2018-06-30T05:56:40.936Z,5.73
2018-06-30T05:59:13.315Z,5.30
2018-06-30T06:01:45.109Z,5.83
2018-06-30T06:04:16.866Z,5.33
2018-06-30T06:06:49.315Z,5.47
2018-06-30T06:09:18.771Z,5.00
2018-06-30T06:11:51.212Z,5.53
2018-06-30T06:14:23.041Z,5.63
2018-06-30T06:16:53.267Z,4.83
2018-06-30T06:19:23.523Z,4.77
2018-06-30T06:21:52.976Z,4.60
2018-06-30T06:24:22.454Z,5.00
2018-06-30T06:26:54.220Z,5.00
2018-06-30T06:29:26.668Z,4.90
2018-06-30T06:31:58.429Z,4.60
2018-06-30T06:34:30.237Z,3.90
2018-06-30T06:36:59.715Z,3.57
2018-06-30T06:39:32.177Z,3.30
2018-06-30T06:42:04.673Z,3.57
2018-06-30T06:44:34.119Z,3.53
2018-06-30T06:47:05.928Z,2.80
2018-06-30T06:49:38.384Z,3.17
2018-06-30T06:52:10.217Z,3.23
2018-06-30T06:54:43.046Z,3.40
2018-06-30T06:57:15.483Z,3.70
2018-06-30T06:59:48.512Z,3.62
2018-06-30T07:02:19.496Z,3.73
2018-06-30T07:04:48.954Z,2.97
2018-06-30T07:07:18.445Z,3.10
2018-06-30T07:09:48.777Z,3.60
2018-06-30T07:12:19.005Z,3.53
2018-06-30T07:14:48.573Z,3.10
2018-06-30T07:17:19.659Z,3.20
2018-06-30T07:19:50.648Z,3.80
2018-06-30T07:22:20.104Z,3.63
2018-06-30T07:24:49.569Z,3.40
2018-06-30T07:27:19.000Z,3.20
2018-06-30T07:29:51.407Z,4.07
2018-06-30T07:32:20.836Z,3.00
2018-06-30T07:34:53.312Z,2.70
2018-06-30T07:37:22.830Z,2.60
2018-06-30T07:39:56.085Z,2.80
2018-06-30T07:42:28.503Z,2.57
2018-06-30T07:44:58.815Z,2.40
2018-06-30T07:47:31.210Z,3.10
2018-06-30T07:50:03.590Z,2.80
2018-06-30T07:52:33.026Z,3.13
2018-06-30T07:55:05.441Z,3.07
2018-06-30T07:57:36.504Z,2.57
2018-06-30T08:00:07.526Z,2.90
2018-06-30T08:02:38.549Z,2.90
2018-06-30T08:05:07.991Z,2.50
2018-06-30T08:07:37.466Z,2.47
2018-06-30T08:10:09.254Z,2.57
2018-06-30T08:12:39.483Z,2.40
2018-06-30T08:15:08.944Z,2.30
2018-06-30T08:17:38.404Z,2.80
2018-06-30T08:20:08.643Z,2.50
2018-06-30T08:22:41.066Z,2.70
2018-06-30T08:25:10.529Z,2.43
2018-06-30T08:27:42.321Z,2.23
2018-06-30T08:30:11.813Z,2.20
2018-06-30T08:32:45.119Z,2.03
2018-06-30T08:35:17.537Z,2.40
2018-06-30T08:37:46.969Z,2.90
2018-06-30T08:40:19.381Z,2.00
2018-06-30T08:42:51.800Z,2.37
2018-06-30T08:45:21.273Z,2.90
2018-06-30T08:47:53.664Z,2.97
2018-06-30T08:50:24.660Z,3.47
2018-06-30T08:52:54.873Z,4.07
2018-06-30T08:55:24.430Z,3.60
2018-06-30T08:57:56.203Z,3.17
2018-06-30T09:00:27.171Z,3.07
2018-06-30T09:02:57.443Z,2.97
2018-06-30T09:05:29.880Z,3.67
2018-06-30T09:08:02.316Z,3.07
2018-06-30T09:10:32.569Z,3.50
2018-06-30T09:13:05.084Z,3.77
2018-06-30T09:15:36.066Z,3.77
2018-06-30T09:18:09.111Z,3.47
2018-06-30T09:20:42.062Z,3.70
2018-06-30T09:23:14.601Z,2.73
2018-06-30T09:25:46.376Z,2.73
2018-06-30T09:28:17.410Z,2.37
2018-06-30T09:30:46.834Z,2.60
2018-06-30T09:33:19.254Z,2.63
2018-06-30T09:35:48.680Z,2.30
2018-06-30T09:38:21.171Z,2.50
2018-06-30T09:40:53.585Z,3.10
2018-06-30T09:43:24.904Z,2.40
2018-06-30T09:45:56.706Z,2.40
2018-06-30T09:48:29.992Z,3.00
2018-06-30T09:50:59.515Z,2.53
2018-06-30T09:53:32.635Z,2.13
2018-06-30T09:56:02.108Z,2.23
2018-06-30T09:58:32.339Z,2.80
2018-06-30T10:01:05.692Z,2.57
2018-06-30T10:03:38.148Z,2.90
2018-06-30T10:06:10.633Z,2.43
2018-06-30T10:08:43.223Z,2.47
2018-06-30T10:11:12.709Z,2.53
2018-06-30T10:13:45.217Z,2.30
2018-06-30T10:16:14.761Z,2.37
2018-06-30T10:18:45.776Z,2.70
2018-06-30T10:21:18.312Z,2.40
2018-06-30T10:23:48.459Z,2.33
2018-06-30T10:26:17.922Z,3.10
2018-06-30T10:28:47.408Z,2.40
2018-06-30T10:31:16.892Z,2.20
2018-06-30T10:33:47.876Z,2.27
2018-06-30T10:36:20.341Z,2.12
2018-06-30T10:38:49.830Z,2.30
2018-06-30T10:41:20.809Z,2.43
2018-06-30T10:43:53.241Z,2.85
2018-06-30T10:46:25.013Z,2.17
2018-06-30T10:48:57.498Z,2.20
2018-06-30T10:51:28.461Z,2.10
2018-06-30T10:53:59.552Z,2.20
2018-06-30T10:56:30.552Z,2.60
2018-06-30T10:59:00.027Z,2.05
2018-06-30T11:01:33.465Z,2.00
2018-06-30T11:04:03.006Z,2.50
2018-06-30T11:06:34.736Z,2.77
2018-06-30T11:09:06.392Z,1.97
2018-06-30T11:11:35.853Z,2.28
2018-06-30T11:14:08.320Z,2.20
2018-06-30T11:16:37.906Z,2.17
2018-06-30T11:19:11.005Z,2.62
2018-06-30T11:21:42.054Z,2.30
2018-06-30T11:24:14.622Z,2.70
2018-06-30T11:26:44.072Z,2.20
2018-06-30T11:29:16.532Z,1.70
2018-06-30T11:31:45.993Z,1.90
2018-06-30T11:34:16.221Z,2.72
2018-06-30T11:36:48.243Z,1.63
2018-06-30T11:39:18.481Z,1.90
2018-06-30T11:41:47.945Z,1.87
2018-06-30T11:44:20.349Z,2.10
2018-06-30T11:46:49.808Z,2.20
2018-06-30T11:49:20.177Z,2.40
2018-06-30T11:51:50.400Z,2.03
2018-06-30T11:54:22.810Z,1.97
2018-06-30T11:56:55.203Z,1.80
2018-06-30T11:59:24.664Z,2.23
2018-06-30T12:01:57.119Z,1.47
2018-06-30T12:04:28.165Z,2.15
2018-06-30T12:07:00.556Z,1.87
2018-06-30T12:09:30.790Z,1.80
2018-06-30T12:12:01.797Z,2.30
2018-06-30T12:14:34.203Z,2.03
2018-06-30T12:17:04.442Z,2.40
2018-06-30T12:19:36.840Z,2.57
2018-06-30T12:22:09.273Z,1.67
2018-06-30T12:24:41.696Z,2.20
2018-06-30T12:27:14.166Z,1.93
2018-06-30T12:29:43.677Z,1.90
2018-06-30T12:32:13.938Z,2.30
2018-06-30T12:34:46.359Z,2.00
2018-06-30T12:37:18.267Z,1.90
2018-06-30T12:39:50.022Z,2.00
2018-06-30T12:42:22.581Z,1.50
2018-06-30T12:44:52.096Z,1.40
2018-06-30T12:47:24.472Z,1.60
2018-06-30T12:49:56.921Z,1.70
2018-06-30T12:52:27.926Z,1.57
2018-06-30T12:55:00.329Z,1.63
2018-06-30T12:57:29.784Z,1.50
2018-06-30T13:00:07.358Z,1.50
2018-06-30T13:02:36.858Z,1.80
2018-06-30T13:05:07.099Z,1.90
2018-06-30T13:07:38.944Z,1.98
2018-06-30T13:10:11.418Z,2.10
2018-06-30T13:12:41.089Z,2.00
2018-06-30T13:15:12.086Z,2.22
2018-06-30T13:17:43.144Z,2.00
2018-06-30T13:20:14.154Z,1.70
